This is the latest recevied weather packets stored in our database for station/object K2ATL. If no packets are shown the sender has not sent any weather packets the latest 10 day(s).
| Time | Temp. | Humidity | Pressure | Rain* | Wind** | Luminosity | Snow |
|---|---|---|---|---|---|---|---|
| 1788147117 | 23.89° C | 83% | 1107.3 hPa | 0 mm | - | 0 W/m² | - |
| 1788146812 | 23.89° C | 83% | 1107.3 hPa | 0 mm | - | 0 W/m² | - |
| 1788146508 | 23.89° C | 83% | 1107.3 hPa | 0 mm | - | 0 W/m² | - |
| 1788146202 | 23.89° C | 83% | 1107.2 hPa | 0 mm | - | 0 W/m² | - |
| 1788145901 | 23.89° C | 82% | 1107.4 hPa | 0 mm | - | 0 W/m² | - |
| 1788145600 | 23.89° C | 82% | 1107.7 hPa | 0 mm | - | 0 W/m² | - |
| 1788145299 | 23.33° C | 83% | 1107.6 hPa | 0 mm | - | 0 W/m² | - |
| 1788144998 | 23.33° C | 84% | 1107.3 hPa | 0 mm | - | 0 W/m² | - |
| 1788144693 | 23.33° C | 83% | 1107.4 hPa | 0 mm | - | 0 W/m² | - |
| 1788144389 | 23.33° C | 85% | 1107.3 hPa | 0 mm | - | 0 W/m² | - |
| 1788144088 | 22.78° C | 87% | 1107.3 hPa | 0 mm | - | 0 W/m² | - |
| 1788143786 | 22.22° C | 89% | 1107.3 hPa | 0 mm | - | 0 W/m² | - |
| 1788143486 | 22.22° C | 90% | 1107.3 hPa | 0 mm | - | 0 W/m² | - |
| 1788143181 | 22.78° C | 90% | 1107.4 hPa | 0 mm | - | 0 W/m² | - |
| 1788142876 | 22.78° C | 90% | 1107.6 hPa | 0 mm | - | 0 W/m² | - |
| 1788142575 | 22.78° C | 90% | 1107.4 hPa | 0 mm | - | 0 W/m² | - |
| 1788142270 | 22.78° C | 90% | 1107.3 hPa | 0 mm | - | 0 W/m² | - |
| 1788141966 | 22.78° C | 89% | 1107.4 hPa | 0 mm | - | 0 W/m² | - |
| 1788141661 | 22.78° C | 88% | 1107.3 hPa | 0 mm | - | 0 W/m² | - |
| 1788141357 | 23.33° C | 87% | 1107.2 hPa | 0 mm | - | 0 W/m² | - |
| 1788141051 | 23.89° C | 84% | 1107.3 hPa | 0 mm | - | 0 W/m² | - |
| 1788140746 | 24.44° C | 84% | 1107.1 hPa | 0 mm | - | 0 W/m² | - |
| 1788140442 | 24.44° C | 80% | 1107.1 hPa | 0 mm | - | 0 W/m² | - |
| 1788140138 | 24.44° C | 81% | 1107 hPa | 0 mm | - | 0 W/m² | - |
| 1788139837 | 24.44° C | 81% | 1107.2 hPa | 0 mm | - | 0 W/m² | - |
* Rain latest hour (hover to see other rain measurements)
** Current wind speed in m/s (hover to see current wind gust speed)